メキシコシティ の空港の天気 - METARとTAF

メキシコ・シティ国際空港 ( MMMX / MEX ) - メキシコ メキシコシティ
飛行場実況気象(Metar)
観測時間04/27 01:45 CDT (04/27 06:45 UTC)
風向・風速西 3m/s
視程10km以上
天気現象
なし
気温19℃
湿度28%
気圧1023hPa
METARMMMX 270645Z 26005KT 10SM SKC 19/00 A3020 NOSIG RMK HZY
過去の天気等 Google飛行場航空写真 Wunderground天気予報

過去48時間のMETAR

飛行場予報(TAF)
発表時間: 4/26 23:03 CDT (4/27 04:03 UTC)
予報対象時間: 27日1時 CDT ~ 28日7時 CDT
風向・風速北北東 3m/s
視程10km以上
全天の8割程度の雲 雲底高度 7,620m
27日16時 CDT から
風向・風速南東 5m/s
視程10km以上
全天の8割程度の雲 雲底高度 7,620m
27日21時 CDT から
風向・風速南東 3m/s
視程10km以上
全天の8割程度の雲 雲底高度 7,620m
TAF MMMX 270403Z 2706/2812 03005KT P6SM BKN250 TX28/2721Z TN16/2712Z
FM272100 13010KT P6SM BKN250
FM280200 13005KT P6SM BKN250